createdAt,value
2018-01-18T00:06:34.487Z,0
2018-01-18T00:36:20.298Z,0
2018-01-18T01:26:36.562Z,0
2018-01-18T01:36:26.346Z,0
2018-01-18T01:46:41.779Z,0
2018-01-18T02:06:35.083Z,0
2018-01-18T03:16:27.089Z,0
2018-01-18T03:26:25.457Z,0
2018-01-18T03:46:44.470Z,0
2018-01-18T04:06:25.968Z,0
2018-01-18T04:16:20.297Z,0
2018-01-18T04:26:24.517Z,0
2018-01-18T04:36:31.749Z,0
2018-01-18T04:56:29.149Z,0
2018-01-18T05:26:24.316Z,0
2018-01-18T05:36:21.273Z,0
2018-01-18T06:06:19.242Z,0
2018-01-18T06:16:30.893Z,0
2018-01-18T06:26:19.229Z,0
2018-01-18T07:26:34.669Z,52
2018-01-18T08:16:23.838Z,2028
2018-01-18T08:26:26.894Z,1768
2018-01-18T08:36:24.560Z,1068
2018-01-18T08:46:24.129Z,2184
2018-01-18T09:36:41.626Z,4272
2018-01-18T10:16:19.123Z,2408
2018-01-18T10:46:19.149Z,2660
2018-01-18T11:26:32.178Z,2152
2018-01-18T11:46:19.133Z,3840
2018-01-18T12:16:19.255Z,5040
2018-01-18T12:26:20.238Z,3964
2018-01-18T12:36:19.232Z,5536
2018-01-18T12:46:19.245Z,4044
2018-01-18T12:56:19.235Z,4412
2018-01-18T13:06:19.278Z,5176
2018-01-18T13:16:19.156Z,4088
2018-01-18T13:26:19.107Z,5916
2018-01-18T13:36:19.314Z,4072
2018-01-18T13:46:19.207Z,1700
2018-01-18T13:56:19.195Z,3120
2018-01-18T14:06:19.351Z,2352
2018-01-18T14:16:19.268Z,1896
2018-01-18T14:26:19.310Z,1704
2018-01-18T14:36:19.243Z,1684
2018-01-18T14:46:19.345Z,1504
2018-01-18T14:56:19.242Z,1260
2018-01-18T15:06:19.122Z,1136
2018-01-18T15:16:19.145Z,904
2018-01-18T15:26:19.230Z,524
2018-01-18T15:36:19.171Z,484
2018-01-18T15:46:19.232Z,240
2018-01-18T15:56:19.168Z,64
2018-01-18T16:06:19.146Z,20
2018-01-18T16:16:19.261Z,12
2018-01-18T16:26:19.200Z,4
2018-01-18T16:36:19.241Z,4
2018-01-18T16:46:19.241Z,4
2018-01-18T16:56:19.197Z,4
2018-01-18T17:06:19.168Z,4
2018-01-18T17:16:19.147Z,0
2018-01-18T17:26:19.131Z,0
2018-01-18T17:36:19.187Z,0
2018-01-18T17:46:19.249Z,0
2018-01-18T17:56:19.076Z,0
2018-01-18T18:06:19.345Z,0
2018-01-18T18:16:19.127Z,0
2018-01-18T18:26:19.082Z,0
2018-01-18T18:36:19.265Z,0
2018-01-18T18:46:19.105Z,0
2018-01-18T18:56:19.250Z,0
2018-01-18T19:06:19.175Z,0
2018-01-18T19:16:19.214Z,0
2018-01-18T19:26:19.828Z,0
2018-01-18T19:36:19.277Z,0
2018-01-18T19:46:19.658Z,0
2018-01-18T19:56:19.172Z,0
2018-01-18T20:06:19.294Z,0
2018-01-18T20:16:19.112Z,0
2018-01-18T20:26:19.133Z,0
2018-01-18T20:36:19.159Z,0
2018-01-18T20:46:19.295Z,0
2018-01-18T20:56:19.162Z,0
2018-01-18T21:06:19.176Z,0
2018-01-18T21:16:19.079Z,0
2018-01-18T21:26:19.187Z,0
2018-01-18T21:36:19.098Z,0
2018-01-18T21:46:19.365Z,0
2018-01-18T21:56:19.158Z,0
2018-01-18T22:06:19.130Z,0
2018-01-18T22:16:19.063Z,0
2018-01-18T22:26:19.210Z,0
2018-01-18T22:36:19.110Z,0
2018-01-18T22:46:19.107Z,0
2018-01-18T22:56:19.063Z,0
2018-01-18T23:06:19.442Z,0
2018-01-18T23:16:19.511Z,0
2018-01-18T23:26:19.197Z,0
2018-01-18T23:36:19.082Z,0
2018-01-18T23:46:19.078Z,0
2018-01-18T23:56:19.117Z,0
